Sao Francisco De Goias, Brazil
Current Conditions -  °F | °C
As of 9:00 PM on Tuesday 25 Nov 2014 (Local Time) from SBAN Reporting Station
Thunderstorm Thunderstorm  
Wind Chill: 66°   Ceiling: 8000
Heat Index: 66°   Visibility: 6mi
Dew Point: 64°   Wind: 0mph
Humidity: 94%   Direction: NA
Pressure: NA   Gusts: NA
Location:  15.93°S, 49.27°W
Report Text: SBAN 252300Z 00000KT 9999 VCTS FEW030 FEW035CB BKN080 19/18 Q1017
Loading
Personal Weather Stations






























Interactive Weather Map New forecast layout! Learn more

10-Day Weather Forecast

Advertisements
Track Severe Weather on mobile